createdAt,value
2022-10-23T00:01:47.739Z,72.34
2022-10-23T00:04:18.082Z,72.33
2022-10-23T00:06:46.348Z,72.32
2022-10-23T00:09:16.967Z,72.32
2022-10-23T00:11:47.629Z,72.40
2022-10-23T00:14:17.352Z,72.25
2022-10-23T00:16:46.589Z,72.32
2022-10-23T00:19:14.465Z,72.29
2022-10-23T00:21:42.408Z,71.99
2022-10-23T00:26:44.609Z,72.05
2022-10-23T00:29:12.605Z,71.98
2022-10-23T00:31:40.513Z,71.97
2022-10-23T00:34:10.507Z,71.80
2022-10-23T00:36:38.558Z,71.90
2022-10-23T00:39:06.960Z,71.89
2022-10-23T00:41:37.017Z,71.80
2022-10-23T00:44:05.090Z,72.01
2022-10-23T00:46:33.530Z,72.01
2022-10-23T00:49:03.968Z,71.80
2022-10-23T00:51:36.063Z,71.82
2022-10-23T00:54:23.873Z,71.74
2022-10-23T00:56:54.855Z,71.69
2022-10-23T00:59:23.377Z,71.66
2022-10-23T01:01:51.990Z,71.55
2022-10-23T01:04:20.569Z,71.50
2022-10-23T01:06:53.693Z,71.67
2022-10-23T01:09:50.982Z,71.28
2022-10-23T01:12:30.966Z,71.38
2022-10-23T01:15:14.344Z,71.46
2022-10-23T01:17:56.567Z,71.43
2022-10-23T01:20:50.934Z,71.30
2022-10-23T01:24:01.185Z,71.32
2022-10-23T01:26:51.455Z,71.25
2022-10-23T01:29:19.926Z,71.35
2022-10-23T01:32:13.651Z,71.49
2022-10-23T01:34:41.478Z,71.36
2022-10-23T01:37:12.533Z,71.03
2022-10-23T01:39:45.718Z,71.08
2022-10-23T01:42:17.626Z,71.06
2022-10-23T01:44:52.090Z,70.98
2022-10-23T01:47:24.502Z,70.88
2022-10-23T01:50:02.969Z,70.91
2022-10-23T01:52:31.306Z,71.04
2022-10-23T01:55:01.426Z,70.90
2022-10-23T01:57:32.531Z,71.04
2022-10-23T02:00:07.361Z,70.87
2022-10-23T02:02:53.049Z,70.89
2022-10-23T02:05:25.163Z,71.09
2022-10-23T02:07:54.231Z,70.89
2022-10-23T02:10:27.704Z,71.01
2022-10-23T02:13:34.074Z,70.99
2022-10-23T02:16:06.502Z,70.71
2022-10-23T02:18:55.973Z,70.42
2022-10-23T02:21:57.951Z,70.58
2022-10-23T02:24:30.894Z,70.89
2022-10-23T02:27:06.387Z,70.77
2022-10-23T02:29:44.110Z,70.82
2022-10-23T02:32:14.916Z,70.79
2022-10-23T02:34:42.790Z,70.87
2022-10-23T02:37:11.706Z,70.66
2022-10-23T02:39:39.981Z,70.56
2022-10-23T02:42:30.585Z,70.62
2022-10-23T02:45:24.592Z,70.85
2022-10-23T02:48:01.574Z,70.83
2022-10-23T02:50:38.120Z,70.87
2022-10-23T02:53:25.118Z,70.96
2022-10-23T02:56:14.274Z,70.81
2022-10-23T02:58:47.707Z,70.94
2022-10-23T03:01:22.733Z,71.08
2022-10-23T03:03:53.830Z,70.72
2022-10-23T03:06:23.265Z,70.94
2022-10-23T03:09:05.544Z,70.94
2022-10-23T03:11:33.602Z,71.08
2022-10-23T03:14:01.898Z,70.79
2022-10-23T03:16:30.691Z,70.77
2022-10-23T03:18:58.697Z,70.89
2022-10-23T03:21:26.721Z,70.73
2022-10-23T03:23:54.711Z,71.01
2022-10-23T03:26:38.717Z,70.92
2022-10-23T03:29:06.607Z,71.04
2022-10-23T03:31:37.527Z,71.33
2022-10-23T03:34:11.005Z,71.15
2022-10-23T03:36:41.469Z,70.99
2022-10-23T03:39:10.144Z,71.02
2022-10-23T03:41:39.088Z,70.95
2022-10-23T03:44:07.099Z,71.03
2022-10-23T03:46:34.840Z,71.07
2022-10-23T03:49:02.902Z,71.21
2022-10-23T03:51:30.719Z,71.16
2022-10-23T03:53:58.645Z,71.20
2022-10-23T03:56:26.811Z,71.45
2022-10-23T03:58:54.725Z,71.36
2022-10-23T04:01:25.119Z,71.39
2022-10-23T04:03:53.190Z,71.51
2022-10-23T04:06:21.838Z,71.78
2022-10-23T04:08:50.228Z,71.65
2022-10-23T04:11:18.733Z,71.52
2022-10-23T04:13:47.499Z,71.51
2022-10-23T04:16:15.744Z,71.37
2022-10-23T04:18:45.514Z,71.76
2022-10-23T04:21:13.499Z,71.75
2022-10-23T04:23:41.782Z,71.84
2022-10-23T04:26:18.432Z,71.68
2022-10-23T04:28:46.206Z,71.42
2022-10-23T04:31:14.269Z,71.53
2022-10-23T04:33:43.288Z,71.81
2022-10-23T04:36:14.059Z,71.89
2022-10-23T04:38:41.955Z,71.72
2022-10-23T04:41:10.033Z,71.93
2022-10-23T04:43:37.937Z,71.99
2022-10-23T04:46:06.074Z,71.93
2022-10-23T04:48:35.181Z,71.82
2022-10-23T04:51:21.321Z,71.69
2022-10-23T04:54:09.656Z,71.50
2022-10-23T04:56:55.065Z,71.52
2022-10-23T04:59:22.971Z,71.49
2022-10-23T05:01:51.474Z,71.24
2022-10-23T05:04:19.666Z,71.10
2022-10-23T05:10:09.938Z,71.13
2022-10-23T05:12:48.420Z,71.23
2022-10-23T05:15:16.335Z,71.17
2022-10-23T05:17:46.970Z,71.38
2022-10-23T05:20:19.689Z,71.18
2022-10-23T05:22:50.255Z,70.99
2022-10-23T05:25:21.470Z,71.26
2022-10-23T05:27:53.609Z,71.17
2022-10-23T05:30:22.759Z,71.29
2022-10-23T05:32:54.620Z,71.38
2022-10-23T05:35:25.556Z,71.31
2022-10-23T05:37:54.200Z,71.08
2022-10-23T05:40:24.921Z,70.94
2022-10-23T05:42:59.279Z,71.07
2022-10-23T05:45:39.654Z,70.89
2022-10-23T05:48:35.379Z,71.17
2022-10-23T05:51:40.135Z,71.29
2022-10-23T05:54:27.918Z,71.24
2022-10-23T05:57:14.138Z,71.30
2022-10-23T05:59:45.638Z,71.40
2022-10-23T06:02:28.981Z,71.25
2022-10-23T06:05:03.803Z,71.00
2022-10-23T06:07:50.491Z,71.09
2022-10-23T06:10:18.965Z,70.98
2022-10-23T06:12:47.781Z,71.28
2022-10-23T06:15:17.187Z,71.71
2022-10-23T06:18:02.099Z,71.66
2022-10-23T06:20:33.013Z,71.70
2022-10-23T06:23:07.480Z,71.59
2022-10-23T06:25:58.115Z,71.45
2022-10-23T06:28:51.988Z,71.30
2022-10-23T06:31:21.781Z,71.23
2022-10-23T06:33:51.652Z,71.00
2022-10-23T06:36:20.729Z,70.77
2022-10-23T06:38:49.939Z,70.86
2022-10-23T06:41:20.189Z,70.94
2022-10-23T06:43:51.509Z,70.84
2022-10-23T06:46:35.133Z,71.37
2022-10-23T06:49:21.279Z,71.44
2022-10-23T06:51:49.396Z,71.47
2022-10-23T06:54:18.208Z,71.51
2022-10-23T06:56:51.823Z,71.45
2022-10-23T06:59:23.404Z,71.18
2022-10-23T07:04:26.129Z,71.34
2022-10-23T07:06:57.742Z,71.30
2022-10-23T07:09:30.853Z,71.41
2022-10-23T07:12:00.213Z,71.53
2022-10-23T07:14:36.208Z,71.67
2022-10-23T07:17:07.685Z,71.57
2022-10-23T07:19:35.447Z,71.48
2022-10-23T07:22:13.443Z,71.36
2022-10-23T07:24:54.430Z,71.37
2022-10-23T07:27:26.882Z,71.39
2022-10-23T07:30:00.289Z,71.41
2022-10-23T07:32:31.206Z,71.54
2022-10-23T07:35:18.022Z,71.40
2022-10-23T07:37:56.752Z,71.29
2022-10-23T07:40:32.941Z,70.96
2022-10-23T07:43:10.132Z,70.50
2022-10-23T07:45:43.535Z,70.69
2022-10-23T07:48:24.790Z,70.89
2022-10-23T07:51:11.701Z,71.04
2022-10-23T07:53:56.600Z,71.20
2022-10-23T07:57:04.273Z,71.09
2022-10-23T08:00:02.680Z,71.10
2022-10-23T08:02:45.353Z,70.82
2022-10-23T08:05:13.360Z,70.70
2022-10-23T08:07:56.067Z,70.63
2022-10-23T08:10:23.964Z,70.47
2022-10-23T08:12:51.935Z,70.11
2022-10-23T08:15:34.102Z,69.49
2022-10-23T08:18:15.529Z,69.22
2022-10-23T08:20:52.406Z,69.04
2022-10-23T08:23:29.089Z,68.97
2022-10-23T08:26:05.437Z,68.87
2022-10-23T08:28:37.573Z,69.03
2022-10-23T08:31:25.671Z,69.20
2022-10-23T08:34:18.812Z,68.83
2022-10-23T08:36:48.085Z,68.81
2022-10-23T08:39:19.569Z,68.80
2022-10-23T08:42:27.653Z,68.62
2022-10-23T08:45:13.899Z,67.86
2022-10-23T08:48:03.371Z,67.48
2022-10-23T08:51:22.497Z,67.54
2022-10-23T08:54:12.856Z,66.61
2022-10-23T08:57:08.811Z,65.50
2022-10-23T08:59:43.743Z,64.99
2022-10-23T09:02:22.409Z,64.08
2022-10-23T09:05:02.341Z,63.83
2022-10-23T09:08:16.308Z,63.52
2022-10-23T09:11:22.180Z,63.02
2022-10-23T09:14:19.126Z,62.29
2022-10-23T09:17:11.231Z,61.85
2022-10-23T09:19:46.402Z,61.20
2022-10-23T09:22:14.376Z,60.72
2022-10-23T09:24:53.693Z,60.53
2022-10-23T09:27:31.524Z,59.96
2022-10-23T09:30:28.962Z,58.54
2022-10-23T09:33:26.706Z,58.64
2022-10-23T09:35:59.582Z,57.93
2022-10-23T09:38:40.268Z,57.52
2022-10-23T09:41:33.951Z,56.55
2022-10-23T09:44:24.912Z,56.56
2022-10-23T09:47:27.890Z,56.02
2022-10-23T09:50:19.933Z,55.35
2022-10-23T09:53:02.066Z,55.00
2022-10-23T09:55:36.086Z,53.68
2022-10-23T09:58:05.441Z,53.50
2022-10-23T10:00:34.402Z,53.01
2022-10-23T10:03:18.241Z,53.23
2022-10-23T10:06:37.503Z,53.05
2022-10-23T10:09:20.208Z,52.93
2022-10-23T10:12:52.080Z,51.61
2022-10-23T10:16:09.011Z,50.85
2022-10-23T10:19:10.863Z,49.75
2022-10-23T10:22:01.615Z,49.55
2022-10-23T10:25:18.054Z,48.71
2022-10-23T10:28:00.372Z,48.22
2022-10-23T10:30:45.021Z,48.66
2022-10-23T10:33:42.836Z,49.37
2022-10-23T10:39:35.095Z,49.93
2022-10-23T10:42:39.646Z,50.80
2022-10-23T10:45:49.715Z,51.04
2022-10-23T10:49:04.962Z,51.00
2022-10-23T10:52:29.456Z,50.77
2022-10-23T10:55:23.785Z,50.85
2022-10-23T10:58:25.973Z,50.20
2022-10-23T11:00:59.327Z,49.33
2022-10-23T11:03:39.151Z,48.77
2022-10-23T11:10:18.859Z,47.82
2022-10-23T11:13:06.463Z,47.01
2022-10-23T11:15:40.716Z,47.41
2022-10-23T11:18:27.484Z,47.75
2022-10-23T11:21:18.167Z,47.96
2022-10-23T11:24:04.369Z,47.44
2022-10-23T11:27:05.964Z,46.87
2022-10-23T11:29:46.455Z,46.21
2022-10-23T11:32:29.362Z,46.33
2022-10-23T11:35:18.906Z,46.43
2022-10-23T11:38:09.991Z,45.78
2022-10-23T11:41:18.975Z,46.09
2022-10-23T11:44:11.169Z,45.94
2022-10-23T11:47:06.122Z,45.74
2022-10-23T11:49:41.038Z,45.47
2022-10-23T11:52:24.113Z,45.96
2022-10-23T11:55:30.908Z,45.40
2022-10-23T12:03:04.241Z,43.67
2022-10-23T12:16:01.305Z,45.64
2022-10-23T12:18:29.246Z,45.29
2022-10-23T12:21:02.244Z,45.06
2022-10-23T12:23:42.126Z,45.73
2022-10-23T12:26:31.323Z,45.85
2022-10-23T12:29:15.454Z,45.28
2022-10-23T12:32:27.372Z,45.44
2022-10-23T12:35:19.491Z,45.46
2022-10-23T12:38:14.807Z,45.82
2022-10-23T12:40:46.836Z,45.42
2022-10-23T12:43:35.398Z,45.37
2022-10-23T12:46:18.107Z,45.24
2022-10-23T12:48:49.729Z,44.80
2022-10-23T12:51:26.708Z,44.46
2022-10-23T12:53:54.949Z,44.34
2022-10-23T12:56:24.897Z,44.40
2022-10-23T12:58:57.346Z,45.16
2022-10-23T13:01:32.472Z,45.23
2022-10-23T13:06:47.667Z,43.74
2022-10-23T13:09:23.343Z,43.78
2022-10-23T13:12:27.332Z,43.28
2022-10-23T13:15:06.126Z,42.82
2022-10-23T13:17:43.631Z,42.01
2022-10-23T13:20:18.245Z,41.31
2022-10-23T13:23:00.257Z,41.18
2022-10-23T13:25:34.118Z,40.53
2022-10-23T13:28:28.949Z,39.61
2022-10-23T13:31:05.586Z,39.29
2022-10-23T13:33:53.417Z,38.77
2022-10-23T13:36:23.903Z,38.49
2022-10-23T13:39:09.960Z,38.14
2022-10-23T13:41:46.056Z,38.37
2022-10-23T13:44:17.443Z,38.31
2022-10-23T13:46:45.396Z,38.28
2022-10-23T13:49:13.193Z,38.82
2022-10-23T13:51:53.070Z,39.21
2022-10-23T13:54:23.857Z,39.95
2022-10-23T13:56:52.501Z,40.28
2022-10-23T13:59:20.466Z,40.00
2022-10-23T14:01:50.218Z,39.57
2022-10-23T14:04:19.449Z,39.31
2022-10-23T14:06:47.473Z,39.06
2022-10-23T14:09:18.541Z,39.31
2022-10-23T14:11:46.435Z,40.35
2022-10-23T14:14:14.230Z,40.99
2022-10-23T14:16:42.038Z,41.24
2022-10-23T14:19:11.641Z,41.21
2022-10-23T14:21:39.932Z,41.33
2022-10-23T14:24:09.158Z,41.39
2022-10-23T14:26:37.642Z,41.71
2022-10-23T14:29:09.771Z,42.03
2022-10-23T14:31:39.340Z,42.79
2022-10-23T14:34:07.560Z,43.69
2022-10-23T14:36:49.275Z,44.32
2022-10-23T14:39:18.666Z,44.95
2022-10-23T14:41:47.344Z,45.72
2022-10-23T14:44:15.147Z,46.38
2022-10-23T14:46:42.994Z,46.91
2022-10-23T14:49:10.874Z,47.19
2022-10-23T14:51:38.688Z,47.74
2022-10-23T14:54:07.788Z,47.98
2022-10-23T14:56:37.991Z,48.58
2022-10-23T14:59:06.646Z,49.27
2022-10-23T15:01:41.249Z,50.10
2022-10-23T15:04:14.760Z,50.81
2022-10-23T15:06:43.457Z,51.39
2022-10-23T15:09:11.249Z,51.51
2022-10-23T15:11:39.480Z,52.07
2022-10-23T15:14:07.736Z,52.71
2022-10-23T15:16:41.522Z,53.24
2022-10-23T15:19:18.193Z,53.72
2022-10-23T15:21:47.929Z,54.11
2022-10-23T15:24:17.158Z,54.67
2022-10-23T15:26:45.319Z,54.88
2022-10-23T15:29:14.728Z,55.29
2022-10-23T15:32:13.762Z,55.71
2022-10-23T15:34:42.890Z,56.13
2022-10-23T15:37:11.280Z,56.75
2022-10-23T15:39:39.110Z,57.05
2022-10-23T15:42:07.169Z,57.12
2022-10-23T15:44:35.053Z,57.25
2022-10-23T15:47:03.001Z,57.60
2022-10-23T15:49:30.911Z,57.83
2022-10-23T15:51:59.413Z,58.15
2022-10-23T15:54:30.497Z,58.25
2022-10-23T15:57:02.262Z,58.71
2022-10-23T15:59:32.061Z,58.90
2022-10-23T16:02:00.001Z,59.06
2022-10-23T16:04:28.740Z,59.45
2022-10-23T16:06:56.984Z,59.78
2022-10-23T16:09:24.792Z,60.09
2022-10-23T16:11:52.551Z,60.43
2022-10-23T16:14:20.376Z,60.65
2022-10-23T16:16:48.228Z,61.07
2022-10-23T16:19:16.025Z,61.26
2022-10-23T16:21:43.872Z,61.53
2022-10-23T16:24:11.828Z,61.75
2022-10-23T16:26:39.923Z,61.97
2022-10-23T16:29:09.325Z,62.11
2022-10-23T16:31:37.621Z,62.17
2022-10-23T16:34:06.719Z,62.40
2022-10-23T16:36:35.300Z,62.55
2022-10-23T16:39:29.754Z,62.52
2022-10-23T16:45:12.014Z,62.92
2022-10-23T16:47:39.962Z,63.21
2022-10-23T16:50:08.503Z,63.61
2022-10-23T16:52:36.431Z,63.69
2022-10-23T16:55:07.174Z,63.83
2022-10-23T16:57:36.101Z,63.90
2022-10-23T17:00:05.475Z,63.87
2022-10-23T17:02:35.511Z,64.03
2022-10-23T17:05:03.954Z,64.07
2022-10-23T17:07:32.613Z,64.15
2022-10-23T17:10:00.753Z,64.29
2022-10-23T17:12:28.667Z,64.38
2022-10-23T17:14:56.660Z,64.54
2022-10-23T17:17:24.807Z,64.59
2022-10-23T17:19:52.674Z,64.72
2022-10-23T17:22:20.819Z,64.71
2022-10-23T17:24:51.474Z,64.77
2022-10-23T17:27:21.849Z,64.84
2022-10-23T17:29:49.652Z,64.93
2022-10-23T17:32:17.710Z,65.01
2022-10-23T17:34:46.658Z,65.20
2022-10-23T17:37:14.517Z,65.37
2022-10-23T17:39:42.317Z,65.76
2022-10-23T17:42:10.260Z,65.94
2022-10-23T17:44:38.073Z,66.27
2022-10-23T17:47:05.846Z,66.35
2022-10-23T17:49:33.696Z,66.06
2022-10-23T17:52:02.107Z,66.15
2022-10-23T17:54:30.294Z,66.34
2022-10-23T17:56:58.851Z,66.37
2022-10-23T17:59:26.973Z,66.50
2022-10-23T18:01:55.968Z,66.55
2022-10-23T18:04:25.296Z,66.68
2022-10-23T18:06:53.644Z,66.86
2022-10-23T18:09:22.608Z,66.84
2022-10-23T18:11:50.838Z,67.14
2022-10-23T18:14:20.319Z,67.21
2022-10-23T18:16:49.560Z,67.23
2022-10-23T18:19:18.480Z,67.34
2022-10-23T18:21:47.430Z,67.44
2022-10-23T18:24:15.924Z,67.58
2022-10-23T18:26:44.372Z,67.77
2022-10-23T18:29:12.771Z,67.90
2022-10-23T18:31:41.532Z,68.05
2022-10-23T18:34:21.552Z,68.28
2022-10-23T18:36:51.314Z,68.34
2022-10-23T18:39:22.517Z,68.38
2022-10-23T18:41:56.317Z,68.60
2022-10-23T18:44:26.951Z,68.72
2022-10-23T18:46:57.055Z,68.76
2022-10-23T18:49:25.163Z,68.89
2022-10-23T18:51:53.333Z,69.02
2022-10-23T18:54:21.823Z,69.15
2022-10-23T18:56:50.211Z,69.34
2022-10-23T18:59:20.171Z,69.47
2022-10-23T19:01:49.004Z,69.58
2022-10-23T19:04:18.386Z,69.57
2022-10-23T19:06:47.779Z,69.67
2022-10-23T19:09:15.911Z,69.89
2022-10-23T19:11:44.068Z,69.72
2022-10-23T19:14:11.957Z,69.75
2022-10-23T19:16:45.325Z,69.79
2022-10-23T19:19:20.605Z,70.01
2022-10-23T19:21:49.247Z,69.87
2022-10-23T19:24:23.241Z,70.02
2022-10-23T19:26:51.106Z,70.02
2022-10-23T19:29:22.007Z,70.09
2022-10-23T19:31:50.751Z,70.09
2022-10-23T19:34:20.180Z,69.95
2022-10-23T19:36:48.760Z,69.99
2022-10-23T19:39:17.170Z,70.18
2022-10-23T19:41:45.648Z,70.17
2022-10-23T19:44:14.503Z,70.10
2022-10-23T19:46:42.350Z,70.07
2022-10-23T19:49:10.791Z,70.09
2022-10-23T19:51:39.512Z,70.11
2022-10-23T19:54:07.499Z,70.19
2022-10-23T19:56:36.150Z,70.19
2022-10-23T19:59:04.345Z,70.19
2022-10-23T20:01:32.347Z,70.25
2022-10-23T20:04:00.444Z,70.26
2022-10-23T20:06:31.949Z,70.33
2022-10-23T20:09:01.264Z,70.53
2022-10-23T20:11:30.616Z,70.76
2022-10-23T20:13:59.222Z,71.19
2022-10-23T20:16:33.510Z,70.97
2022-10-23T20:19:06.955Z,70.99
2022-10-23T20:21:35.986Z,70.96
2022-10-23T20:24:04.015Z,70.95
2022-10-23T20:26:32.042Z,70.96
2022-10-23T20:28:59.909Z,70.94
2022-10-23T20:31:27.880Z,70.82
2022-10-23T20:33:56.407Z,70.86
2022-10-23T20:36:46.688Z,70.80
2022-10-23T20:39:18.798Z,70.59
2022-10-23T20:41:47.578Z,70.68
2022-10-23T20:46:49.952Z,70.65
2022-10-23T20:49:18.921Z,70.54
2022-10-23T20:51:54.866Z,70.38
2022-10-23T20:54:28.646Z,70.34
2022-10-23T20:56:57.126Z,70.15
2022-10-23T20:59:25.466Z,70.19
2022-10-23T21:01:55.357Z,70.20
2022-10-23T21:04:26.480Z,70.35
2022-10-23T21:07:11.700Z,70.29
2022-10-23T21:09:40.217Z,70.29
2022-10-23T21:12:08.660Z,70.24
2022-10-23T21:14:36.680Z,70.23
2022-10-23T21:17:04.781Z,70.26
2022-10-23T21:19:32.582Z,70.18
2022-10-23T21:22:00.496Z,70.10
2022-10-23T21:24:28.223Z,70.07
2022-10-23T21:26:56.066Z,69.88
2022-10-23T21:29:23.931Z,70.00
2022-10-23T21:31:55.924Z,70.14
2022-10-23T21:34:25.394Z,70.09
2022-10-23T21:37:12.598Z,69.83
2022-10-23T21:39:42.852Z,69.72
2022-10-23T21:42:12.057Z,69.71
2022-10-23T21:44:40.210Z,69.78
2022-10-23T21:47:08.096Z,69.89
2022-10-23T21:49:35.917Z,70.04
2022-10-23T21:52:04.243Z,69.89
2022-10-23T21:54:32.043Z,69.93
2022-10-23T21:56:59.872Z,69.94
2022-10-23T21:59:30.139Z,69.82
2022-10-23T22:01:59.761Z,69.76
2022-10-23T22:04:27.687Z,69.74
2022-10-23T22:06:55.675Z,69.75
2022-10-23T22:09:23.569Z,69.82
2022-10-23T22:11:52.616Z,69.75
2022-10-23T22:14:21.896Z,69.62
2022-10-23T22:16:49.783Z,69.61
2022-10-23T22:19:18.688Z,69.69
2022-10-23T22:21:47.924Z,69.77
2022-10-23T22:24:16.331Z,69.62
2022-10-23T22:26:47.717Z,69.57
2022-10-23T22:29:18.286Z,69.47
2022-10-23T22:31:48.949Z,69.44
2022-10-23T22:34:34.169Z,69.68
2022-10-23T22:37:09.951Z,69.49
2022-10-23T22:40:35.945Z,69.57
2022-10-23T22:43:04.066Z,69.66
2022-10-23T22:45:31.797Z,69.65
2022-10-23T22:47:59.531Z,69.73
2022-10-23T22:50:27.627Z,69.69
2022-10-23T22:52:55.362Z,69.67
2022-10-23T22:55:23.125Z,69.54
2022-10-23T22:57:50.892Z,69.60
2022-10-23T23:01:38.416Z,69.65
2022-10-23T23:04:19.744Z,69.58
2022-10-23T23:06:54.376Z,69.74
2022-10-23T23:09:22.300Z,69.78
2022-10-23T23:11:52.025Z,69.88
2022-10-23T23:14:23.625Z,70.02
2022-10-23T23:16:54.464Z,69.96
2022-10-23T23:19:23.291Z,69.98
2022-10-23T23:21:51.186Z,69.98
2022-10-23T23:24:18.976Z,69.97
2022-10-23T23:26:46.790Z,69.97
2022-10-23T23:29:14.553Z,69.96
2022-10-23T23:31:45.976Z,69.84
2022-10-23T23:34:14.010Z,69.93
2022-10-23T23:36:41.798Z,69.82
2022-10-23T23:39:10.436Z,69.86
2022-10-23T23:41:38.387Z,69.67
2022-10-23T23:44:06.602Z,69.70
2022-10-23T23:46:34.405Z,69.79
2022-10-23T23:49:02.218Z,69.77
2022-10-23T23:51:30.373Z,69.72
2022-10-23T23:53:58.135Z,69.78
2022-10-23T23:56:25.987Z,69.65
2022-10-23T23:58:53.742Z,69.79
